sensor_id;sensor_type;location;lat;lon;timestamp;pressure;altitude;pressure_sealevel;temperature;humidity
54808;BME280;40708;50.364;7.550;2022-12-18T00:02:07;101977.03;;;-9.78;100.00
54808;BME280;40708;50.364;7.550;2022-12-18T00:04:32;101975.81;;;-9.81;100.00
54808;BME280;40708;50.364;7.550;2022-12-18T00:06:58;101978.84;;;-9.77;100.00
54808;BME280;40708;50.364;7.550;2022-12-18T00:09:23;101982.16;;;-9.78;100.00
54808;BME280;40708;50.364;7.550;2022-12-18T00:11:48;101977.63;;;-9.80;100.00
54808;BME280;40708;50.364;7.550;2022-12-18T00:14:14;101968.38;;;-9.87;100.00
54808;BME280;40708;50.364;7.550;2022-12-18T00:16:42;101969.53;;;-9.92;100.00
54808;BME280;40708;50.364;7.550;2022-12-18T00:19:08;101968.47;;;-9.94;100.00
54808;BME280;40708;50.364;7.550;2022-12-18T00:21:34;101963.19;;;-9.95;100.00
54808;BME280;40708;50.364;7.550;2022-12-18T00:24:00;101967.53;;;-10.03;100.00
54808;BME280;40708;50.364;7.550;2022-12-18T00:26:28;101968.38;;;-9.87;100.00
54808;BME280;40708;50.364;7.550;2022-12-18T00:28:54;101972.88;;;-9.93;100.00
54808;BME280;40708;50.364;7.550;2022-12-18T00:31:23;101970.31;;;-9.93;100.00
54808;BME280;40708;50.364;7.550;2022-12-18T00:33:49;101968.72;;;-9.99;100.00
54808;BME280;40708;50.364;7.550;2022-12-18T00:36:17;101969.19;;;-10.03;100.00
54808;BME280;40708;50.364;7.550;2022-12-18T00:38:42;101974.47;;;-10.02;100.00
54808;BME280;40708;50.364;7.550;2022-12-18T00:41:09;101973.81;;;-10.08;100.00
54808;BME280;40708;50.364;7.550;2022-12-18T00:43:36;101968.53;;;-10.09;100.00
54808;BME280;40708;50.364;7.550;2022-12-18T00:46:02;101969.25;;;-10.10;100.00
54808;BME280;40708;50.364;7.550;2022-12-18T00:48:27;101976.66;;;-10.13;100.00
54808;BME280;40708;50.364;7.550;2022-12-18T00:50:52;101972.72;;;-10.18;100.00
54808;BME280;40708;50.364;7.550;2022-12-18T00:53:18;101977.25;;;-10.16;100.00
54808;BME280;40708;50.364;7.550;2022-12-18T00:55:44;101979.44;;;-10.03;100.00
54808;BME280;40708;50.364;7.550;2022-12-18T00:58:10;101980.16;;;-10.13;100.00
54808;BME280;40708;50.364;7.550;2022-12-18T01:00:37;101980.69;;;-10.24;100.00
54808;BME280;40708;50.364;7.550;2022-12-18T01:03:03;101982.91;;;-10.27;100.00
54808;BME280;40708;50.364;7.550;2022-12-18T01:05:28;101985.66;;;-10.25;100.00
54808;BME280;40708;50.364;7.550;2022-12-18T01:07:55;101983.34;;;-10.31;100.00
54808;BME280;40708;50.364;7.550;2022-12-18T01:10:20;101980.72;;;-10.40;100.00
54808;BME280;40708;50.364;7.550;2022-12-18T01:12:46;101979.38;;;-10.36;100.00
54808;BME280;40708;50.364;7.550;2022-12-18T01:15:12;101983.19;;;-10.33;100.00
54808;BME280;40708;50.364;7.550;2022-12-18T01:17:38;101985.06;;;-10.23;100.00
54808;BME280;40708;50.364;7.550;2022-12-18T01:20:04;101994.69;;;-10.29;100.00
54808;BME280;40708;50.364;7.550;2022-12-18T01:22:29;101993.63;;;-10.31;100.00
54808;BME280;40708;50.364;7.550;2022-12-18T01:24:55;101992.81;;;-10.39;100.00
54808;BME280;40708;50.364;7.550;2022-12-18T01:27:20;101982.22;;;-10.42;100.00
54808;BME280;40708;50.364;7.550;2022-12-18T01:29:45;101979.00;;;-10.48;100.00
54808;BME280;40708;50.364;7.550;2022-12-18T01:32:10;101979.16;;;-10.46;100.00
54808;BME280;40708;50.364;7.550;2022-12-18T01:34:36;101978.72;;;-10.42;100.00
54808;BME280;40708;50.364;7.550;2022-12-18T01:37:05;101975.44;;;-10.41;100.00
54808;BME280;40708;50.364;7.550;2022-12-18T01:39:31;101971.94;;;-10.42;100.00
54808;BME280;40708;50.364;7.550;2022-12-18T01:42:02;101983.38;;;-10.47;100.00
54808;BME280;40708;50.364;7.550;2022-12-18T01:44:57;101984.47;;;-10.60;100.00
54808;BME280;40708;50.364;7.550;2022-12-18T01:48:25;101981.47;;;-10.56;100.00
54808;BME280;40708;50.364;7.550;2022-12-18T01:53:00;101992.41;;;-10.66;100.00
54808;BME280;40708;50.364;7.550;2022-12-18T01:55:30;101993.31;;;-10.65;100.00
54808;BME280;40708;50.364;7.550;2022-12-18T01:57:58;101988.75;;;-10.68;100.00
54808;BME280;40708;50.364;7.550;2022-12-18T02:00:25;101981.34;;;-10.73;100.00
54808;BME280;40708;50.364;7.550;2022-12-18T02:02:52;101988.25;;;-10.72;100.00
54808;BME280;40708;50.364;7.550;2022-12-18T02:05:23;101979.16;;;-10.77;100.00
54808;BME280;40708;50.364;7.550;2022-12-18T02:10:51;101983.56;;;-10.76;100.00
54808;BME280;40708;50.364;7.550;2022-12-18T02:14:10;101982.91;;;-10.82;100.00
54808;BME280;40708;50.364;7.550;2022-12-18T02:16:49;101977.19;;;-10.80;100.00
54808;BME280;40708;50.364;7.550;2022-12-18T02:19:39;101976.03;;;-10.75;100.00
54808;BME280;40708;50.364;7.550;2022-12-18T02:25:29;101974.44;;;-10.50;100.00
54808;BME280;40708;50.364;7.550;2022-12-18T02:28:02;101964.31;;;-10.49;100.00
54808;BME280;40708;50.364;7.550;2022-12-18T02:30:31;101961.63;;;-10.50;100.00
54808;BME280;40708;50.364;7.550;2022-12-18T02:33:01;101957.66;;;-10.55;100.00
54808;BME280;40708;50.364;7.550;2022-12-18T02:35:30;101967.41;;;-10.44;100.00
54808;BME280;40708;50.364;7.550;2022-12-18T02:37:56;101968.47;;;-10.42;100.00
54808;BME280;40708;50.364;7.550;2022-12-18T02:40:24;101969.78;;;-10.46;100.00
54808;BME280;40708;50.364;7.550;2022-12-18T02:42:51;101963.13;;;-10.52;100.00
54808;BME280;40708;50.364;7.550;2022-12-18T02:45:17;101970.25;;;-10.65;100.00
54808;BME280;40708;50.364;7.550;2022-12-18T02:47:45;101966.25;;;-10.70;100.00
54808;BME280;40708;50.364;7.550;2022-12-18T02:53:17;101966.84;;;-10.73;100.00
54808;BME280;40708;50.364;7.550;2022-12-18T02:56:05;101963.44;;;-10.65;100.00
54808;BME280;40708;50.364;7.550;2022-12-18T03:01:11;101957.25;;;-10.67;100.00
54808;BME280;40708;50.364;7.550;2022-12-18T03:06:10;101964.69;;;-10.77;100.00
54808;BME280;40708;50.364;7.550;2022-12-18T03:08:41;101964.38;;;-10.80;100.00
54808;BME280;40708;50.364;7.550;2022-12-18T03:11:10;101954.94;;;-10.72;100.00
54808;BME280;40708;50.364;7.550;2022-12-18T03:13:39;101949.47;;;-10.75;100.00
54808;BME280;40708;50.364;7.550;2022-12-18T03:16:08;101959.50;;;-10.85;100.00
54808;BME280;40708;50.364;7.550;2022-12-18T03:18:43;101966.50;;;-10.92;100.00
54808;BME280;40708;50.364;7.550;2022-12-18T03:21:13;101963.94;;;-10.92;100.00
54808;BME280;40708;50.364;7.550;2022-12-18T03:23:44;101968.16;;;-10.92;100.00
54808;BME280;40708;50.364;7.550;2022-12-18T03:26:16;101967.53;;;-10.98;100.00
54808;BME280;40708;50.364;7.550;2022-12-18T03:28:55;101964.09;;;-11.06;100.00
54808;BME280;40708;50.364;7.550;2022-12-18T03:31:23;101959.97;;;-11.12;100.00
54808;BME280;40708;50.364;7.550;2022-12-18T03:33:55;101961.28;;;-11.16;100.00
54808;BME280;40708;50.364;7.550;2022-12-18T03:36:23;101959.03;;;-11.28;100.00
54808;BME280;40708;50.364;7.550;2022-12-18T03:38:48;101958.53;;;-11.33;100.00
54808;BME280;40708;50.364;7.550;2022-12-18T03:44:13;101946.97;;;-11.29;100.00
54808;BME280;40708;50.364;7.550;2022-12-18T03:49:48;101947.66;;;-11.23;100.00
54808;BME280;40708;50.364;7.550;2022-12-18T03:52:30;101943.69;;;-11.28;100.00
54808;BME280;40708;50.364;7.550;2022-12-18T03:54:58;101943.00;;;-11.34;100.00
54808;BME280;40708;50.364;7.550;2022-12-18T03:57:28;101939.38;;;-11.36;100.00
54808;BME280;40708;50.364;7.550;2022-12-18T03:59:58;101939.19;;;-11.38;100.00
54808;BME280;40708;50.364;7.550;2022-12-18T04:02:25;101934.06;;;-11.38;100.00
54808;BME280;40708;50.364;7.550;2022-12-18T04:04:52;101939.06;;;-11.46;100.00
54808;BME280;40708;50.364;7.550;2022-12-18T04:07:20;101931.97;;;-11.49;100.00
54808;BME280;40708;50.364;7.550;2022-12-18T04:09:46;101941.25;;;-11.42;100.00
54808;BME280;40708;50.364;7.550;2022-12-18T04:12:13;101933.00;;;-11.40;100.00
54808;BME280;40708;50.364;7.550;2022-12-18T04:14:38;101935.06;;;-11.44;100.00
54808;BME280;40708;50.364;7.550;2022-12-18T04:17:03;101930.44;;;-11.40;100.00
54808;BME280;40708;50.364;7.550;2022-12-18T04:19:29;101926.03;;;-11.41;100.00
54808;BME280;40708;50.364;7.550;2022-12-18T04:21:54;101930.69;;;-11.30;100.00
54808;BME280;40708;50.364;7.550;2022-12-18T04:24:20;101924.34;;;-11.33;100.00
54808;BME280;40708;50.364;7.550;2022-12-18T04:26:45;101926.38;;;-11.38;100.00
54808;BME280;40708;50.364;7.550;2022-12-18T04:29:11;101933.44;;;-11.28;100.00
54808;BME280;40708;50.364;7.550;2022-12-18T04:31:37;101935.41;;;-11.26;100.00
54808;BME280;40708;50.364;7.550;2022-12-18T04:34:02;101938.44;;;-11.37;100.00
54808;BME280;40708;50.364;7.550;2022-12-18T04:36:28;101940.59;;;-11.33;100.00
54808;BME280;40708;50.364;7.550;2022-12-18T04:38:53;101934.25;;;-11.21;100.00
54808;BME280;40708;50.364;7.550;2022-12-18T04:41:18;101922.03;;;-11.23;100.00
54808;BME280;40708;50.364;7.550;2022-12-18T04:43:44;101936.72;;;-11.29;100.00
54808;BME280;40708;50.364;7.550;2022-12-18T04:46:09;101930.44;;;-11.24;100.00
54808;BME280;40708;50.364;7.550;2022-12-18T04:48:35;101932.59;;;-11.20;100.00
54808;BME280;40708;50.364;7.550;2022-12-18T04:51:00;101931.03;;;-11.27;100.00
54808;BME280;40708;50.364;7.550;2022-12-18T04:53:26;101933.31;;;-11.37;100.00
54808;BME280;40708;50.364;7.550;2022-12-18T04:56:02;101931.72;;;-11.43;100.00
54808;BME280;40708;50.364;7.550;2022-12-18T04:58:28;101918.44;;;-11.48;100.00
54808;BME280;40708;50.364;7.550;2022-12-18T05:00:53;101921.97;;;-11.55;100.00
54808;BME280;40708;50.364;7.550;2022-12-18T05:03:18;101926.94;;;-11.56;100.00
54808;BME280;40708;50.364;7.550;2022-12-18T05:05:44;101930.63;;;-11.61;100.00
54808;BME280;40708;50.364;7.550;2022-12-18T05:08:09;101931.56;;;-11.61;100.00
54808;BME280;40708;50.364;7.550;2022-12-18T05:10:34;101924.53;;;-11.70;100.00
54808;BME280;40708;50.364;7.550;2022-12-18T05:12:59;101929.31;;;-11.73;100.00
54808;BME280;40708;50.364;7.550;2022-12-18T05:15:32;101921.47;;;-11.75;100.00
54808;BME280;40708;50.364;7.550;2022-12-18T05:17:58;101921.69;;;-11.80;100.00
54808;BME280;40708;50.364;7.550;2022-12-18T05:20:24;101923.19;;;-11.82;100.00
54808;BME280;40708;50.364;7.550;2022-12-18T05:22:50;101921.94;;;-11.86;100.00
54808;BME280;40708;50.364;7.550;2022-12-18T05:25:16;101919.03;;;-11.89;100.00
54808;BME280;40708;50.364;7.550;2022-12-18T05:27:41;101921.59;;;-11.89;100.00
54808;BME280;40708;50.364;7.550;2022-12-18T05:30:08;101923.56;;;-11.86;100.00
54808;BME280;40708;50.364;7.550;2022-12-18T05:32:34;101918.06;;;-11.82;100.00
54808;BME280;40708;50.364;7.550;2022-12-18T05:34:59;101925.06;;;-11.88;100.00
54808;BME280;40708;50.364;7.550;2022-12-18T05:37:24;101921.44;;;-11.90;100.00
54808;BME280;40708;50.364;7.550;2022-12-18T05:39:50;101907.59;;;-11.99;100.00
54808;BME280;40708;50.364;7.550;2022-12-18T05:42:15;101921.88;;;-12.01;100.00
54808;BME280;40708;50.364;7.550;2022-12-18T05:44:40;101911.88;;;-12.07;100.00
54808;BME280;40708;50.364;7.550;2022-12-18T05:47:06;101915.16;;;-12.08;100.00
54808;BME280;40708;50.364;7.550;2022-12-18T05:49:31;101919.34;;;-12.08;100.00
54808;BME280;40708;50.364;7.550;2022-12-18T05:51:56;101919.91;;;-12.11;100.00
54808;BME280;40708;50.364;7.550;2022-12-18T05:54:22;101929.22;;;-12.12;100.00
54808;BME280;40708;50.364;7.550;2022-12-18T05:56:47;101925.94;;;-12.10;100.00
54808;BME280;40708;50.364;7.550;2022-12-18T05:59:12;101923.25;;;-12.12;100.00
54808;BME280;40708;50.364;7.550;2022-12-18T06:01:38;101926.53;;;-12.13;100.00
54808;BME280;40708;50.364;7.550;2022-12-18T06:04:03;101920.84;;;-12.10;100.00
54808;BME280;40708;50.364;7.550;2022-12-18T06:06:28;101927.13;;;-11.93;100.00
54808;BME280;40708;50.364;7.550;2022-12-18T06:08:55;101924.28;;;-11.87;100.00
54808;BME280;40708;50.364;7.550;2022-12-18T06:11:25;101935.06;;;-11.83;100.00
54808;BME280;40708;50.364;7.550;2022-12-18T06:13:52;101938.84;;;-11.79;100.00
54808;BME280;40708;50.364;7.550;2022-12-18T06:16:18;101947.75;;;-11.91;100.00
54808;BME280;40708;50.364;7.550;2022-12-18T06:18:43;101950.69;;;-11.95;100.00
54808;BME280;40708;50.364;7.550;2022-12-18T06:21:09;101964.25;;;-11.96;100.00
54808;BME280;40708;50.364;7.550;2022-12-18T06:23:35;101954.56;;;-11.99;100.00
54808;BME280;40708;50.364;7.550;2022-12-18T06:26:06;101954.22;;;-12.02;100.00
54808;BME280;40708;50.364;7.550;2022-12-18T06:28:31;101956.81;;;-12.09;100.00
54808;BME280;40708;50.364;7.550;2022-12-18T06:30:56;101962.91;;;-12.16;100.00
54808;BME280;40708;50.364;7.550;2022-12-18T06:33:26;101960.75;;;-11.97;100.00
54808;BME280;40708;50.364;7.550;2022-12-18T06:35:52;101959.47;;;-11.93;100.00
54808;BME280;40708;50.364;7.550;2022-12-18T06:38:17;101967.00;;;-11.79;100.00
54808;BME280;40708;50.364;7.550;2022-12-18T06:40:42;101965.47;;;-11.70;100.00
54808;BME280;40708;50.364;7.550;2022-12-18T06:43:08;101965.69;;;-11.69;100.00
54808;BME280;40708;50.364;7.550;2022-12-18T06:45:33;101966.25;;;-11.71;100.00
54808;BME280;40708;50.364;7.550;2022-12-18T06:47:59;101980.50;;;-11.73;100.00
54808;BME280;40708;50.364;7.550;2022-12-18T06:50:24;101974.88;;;-11.78;100.00
54808;BME280;40708;50.364;7.550;2022-12-18T06:52:49;101974.75;;;-11.86;100.00
54808;BME280;40708;50.364;7.550;2022-12-18T06:55:14;101973.63;;;-12.04;100.00
54808;BME280;40708;50.364;7.550;2022-12-18T06:57:40;101972.28;;;-12.00;100.00
54808;BME280;40708;50.364;7.550;2022-12-18T07:00:06;101977.03;;;-11.96;100.00
54808;BME280;40708;50.364;7.550;2022-12-18T07:02:32;101964.97;;;-11.97;100.00
54808;BME280;40708;50.364;7.550;2022-12-18T07:04:57;101968.28;;;-11.98;100.00
54808;BME280;40708;50.364;7.550;2022-12-18T07:07:23;101966.59;;;-11.98;100.00
54808;BME280;40708;50.364;7.550;2022-12-18T07:09:49;101967.38;;;-11.99;100.00
54808;BME280;40708;50.364;7.550;2022-12-18T07:12:15;101960.25;;;-12.01;100.00
54808;BME280;40708;50.364;7.550;2022-12-18T07:14:41;101953.81;;;-11.98;100.00
54808;BME280;40708;50.364;7.550;2022-12-18T07:17:06;101950.69;;;-11.95;100.00
54808;BME280;40708;50.364;7.550;2022-12-18T07:19:32;101955.25;;;-11.93;100.00
54808;BME280;40708;50.364;7.550;2022-12-18T07:21:57;101955.63;;;-11.97;100.00
54808;BME280;40708;50.364;7.550;2022-12-18T07:24:23;101956.38;;;-11.98;100.00
54808;BME280;40708;50.364;7.550;2022-12-18T07:26:48;101959.00;;;-12.05;100.00
54808;BME280;40708;50.364;7.550;2022-12-18T07:29:13;101960.16;;;-12.17;100.00
54808;BME280;40708;50.364;7.550;2022-12-18T07:31:39;101969.88;;;-12.22;100.00
54808;BME280;40708;50.364;7.550;2022-12-18T07:34:04;101984.72;;;-12.26;100.00
54808;BME280;40708;50.364;7.550;2022-12-18T07:36:29;101982.16;;;-12.26;100.00
54808;BME280;40708;50.364;7.550;2022-12-18T07:38:55;101990.19;;;-12.23;100.00
54808;BME280;40708;50.364;7.550;2022-12-18T07:41:21;101979.19;;;-12.22;100.00
54808;BME280;40708;50.364;7.550;2022-12-18T07:43:47;101994.50;;;-12.15;100.00
54808;BME280;40708;50.364;7.550;2022-12-18T07:46:13;101986.44;;;-12.11;100.00
54808;BME280;40708;50.364;7.550;2022-12-18T07:48:40;101986.56;;;-12.02;100.00
54808;BME280;40708;50.364;7.550;2022-12-18T07:51:06;101981.63;;;-11.78;100.00
54808;BME280;40708;50.364;7.550;2022-12-18T07:53:33;101986.03;;;-11.77;100.00
54808;BME280;40708;50.364;7.550;2022-12-18T07:56:00;101970.19;;;-11.66;100.00
54808;BME280;40708;50.364;7.550;2022-12-18T07:58:26;101970.19;;;-11.66;100.00
54808;BME280;40708;50.364;7.550;2022-12-18T08:00:51;101969.97;;;-11.61;100.00
54808;BME280;40708;50.364;7.550;2022-12-18T08:03:18;101973.88;;;-11.33;100.00
54808;BME280;40708;50.364;7.550;2022-12-18T08:05:43;101971.88;;;-11.13;100.00
54808;BME280;40708;50.364;7.550;2022-12-18T08:08:09;101970.97;;;-10.98;100.00
54808;BME280;40708;50.364;7.550;2022-12-18T08:10:35;101973.94;;;-10.86;100.00
54808;BME280;40708;50.364;7.550;2022-12-18T08:13:00;101970.66;;;-10.30;100.00
54808;BME280;40708;50.364;7.550;2022-12-18T08:15:25;101968.31;;;-9.95;100.00
54808;BME280;40708;50.364;7.550;2022-12-18T08:17:51;101952.59;;;-9.98;100.00
54808;BME280;40708;50.364;7.550;2022-12-18T08:20:16;101947.25;;;-9.84;100.00
54808;BME280;40708;50.364;7.550;2022-12-18T08:22:43;101938.50;;;-9.78;100.00
54808;BME280;40708;50.364;7.550;2022-12-18T08:25:09;101931.84;;;-9.51;100.00
54808;BME280;40708;50.364;7.550;2022-12-18T08:27:34;101928.34;;;-9.11;100.00
54808;BME280;40708;50.364;7.550;2022-12-18T08:30:00;101919.44;;;-8.80;100.00
54808;BME280;40708;50.364;7.550;2022-12-18T08:32:26;101908.66;;;-8.24;100.00
54808;BME280;40708;50.364;7.550;2022-12-18T08:34:52;101904.44;;;-7.79;100.00
54808;BME280;40708;50.364;7.550;2022-12-18T08:37:18;101897.94;;;-7.85;100.00
54808;BME280;40708;50.364;7.550;2022-12-18T08:39:43;101889.66;;;-7.99;100.00
54808;BME280;40708;50.364;7.550;2022-12-18T08:42:09;101900.91;;;-8.07;100.00
54808;BME280;40708;50.364;7.550;2022-12-18T08:44:52;101898.09;;;-7.83;100.00
54808;BME280;40708;50.364;7.550;2022-12-18T08:47:17;101903.53;;;-7.80;100.00
54808;BME280;40708;50.364;7.550;2022-12-18T08:49:43;101908.97;;;-7.77;100.00
54808;BME280;40708;50.364;7.550;2022-12-18T08:52:08;101907.88;;;-7.35;100.00
54808;BME280;40708;50.364;7.550;2022-12-18T08:54:34;101900.06;;;-7.45;100.00
54808;BME280;40708;50.364;7.550;2022-12-18T08:56:59;101900.41;;;-7.23;100.00
54808;BME280;40708;50.364;7.550;2022-12-18T08:59:24;101898.31;;;-7.63;100.00
54808;BME280;40708;50.364;7.550;2022-12-18T09:01:50;101899.06;;;-8.08;100.00
54808;BME280;40708;50.364;7.550;2022-12-18T09:04:15;101896.56;;;-8.34;100.00
54808;BME280;40708;50.364;7.550;2022-12-18T09:06:40;101897.47;;;-8.33;100.00
54808;BME280;40708;50.364;7.550;2022-12-18T09:09:06;101902.53;;;-7.63;100.00
54808;BME280;40708;50.364;7.550;2022-12-18T09:11:32;101892.25;;;-7.36;100.00
54808;BME280;40708;50.364;7.550;2022-12-18T09:13:59;101898.50;;;-7.34;100.00
54808;BME280;40708;50.364;7.550;2022-12-18T09:16:26;101900.44;;;-6.86;100.00
54808;BME280;40708;50.364;7.550;2022-12-18T09:18:54;101904.44;;;-6.33;100.00
54808;BME280;40708;50.364;7.550;2022-12-18T09:21:25;101903.72;;;-6.59;100.00
54808;BME280;40708;50.364;7.550;2022-12-18T09:23:51;101892.69;;;-6.48;100.00
54808;BME280;40708;50.364;7.550;2022-12-18T09:26:16;101885.59;;;-6.70;100.00
54808;BME280;40708;50.364;7.550;2022-12-18T09:28:43;101881.00;;;-6.16;100.00
54808;BME280;40708;50.364;7.550;2022-12-18T09:31:10;101887.75;;;-6.08;100.00
54808;BME280;40708;50.364;7.550;2022-12-18T09:33:35;101892.22;;;-6.16;100.00
54808;BME280;40708;50.364;7.550;2022-12-18T09:36:03;101895.91;;;-6.03;100.00
54808;BME280;40708;50.364;7.550;2022-12-18T09:38:29;101892.38;;;-5.65;100.00
54808;BME280;40708;50.364;7.550;2022-12-18T09:40:59;101889.69;;;-5.57;100.00
54808;BME280;40708;50.364;7.550;2022-12-18T09:45:58;101875.50;;;-6.00;100.00
54808;BME280;40708;50.364;7.550;2022-12-18T09:48:32;101873.34;;;-5.86;100.00
54808;BME280;40708;50.364;7.550;2022-12-18T09:51:04;101870.94;;;-5.54;100.00
54808;BME280;40708;50.364;7.550;2022-12-18T09:53:33;101861.88;;;-5.69;100.00
54808;BME280;40708;50.364;7.550;2022-12-18T09:56:02;101856.00;;;-5.28;100.00
54808;BME280;40708;50.364;7.550;2022-12-18T09:58:37;101858.72;;;-4.76;100.00
54808;BME280;40708;50.364;7.550;2022-12-18T10:01:19;101841.19;;;-4.58;100.00
54808;BME280;40708;50.364;7.550;2022-12-18T10:03:45;101846.00;;;-4.83;100.00
54808;BME280;40708;50.364;7.550;2022-12-18T10:06:14;101837.41;;;-4.52;100.00
54808;BME280;40708;50.364;7.550;2022-12-18T10:08:51;101837.81;;;-4.57;100.00
54808;BME280;40708;50.364;7.550;2022-12-18T10:14:57;101844.06;;;-4.65;100.00
54808;BME280;40708;50.364;7.550;2022-12-18T10:17:39;101841.00;;;-5.12;100.00
54808;BME280;40708;50.364;7.550;2022-12-18T10:20:49;101838.13;;;-5.05;100.00
54808;BME280;40708;50.364;7.550;2022-12-18T10:26:03;101814.38;;;-4.59;100.00
54808;BME280;40708;50.364;7.550;2022-12-18T10:28:30;101812.22;;;-4.74;100.00
54808;BME280;40708;50.364;7.550;2022-12-18T10:30:56;101813.75;;;-4.66;100.00
54808;BME280;40708;50.364;7.550;2022-12-18T10:33:23;101811.44;;;-4.84;100.00
54808;BME280;40708;50.364;7.550;2022-12-18T10:35:50;101808.75;;;-5.05;100.00
54808;BME280;40708;50.364;7.550;2022-12-18T10:44:17;101801.94;;;-3.78;100.00
54808;BME280;40708;50.364;7.550;2022-12-18T10:46:48;101811.47;;;-3.88;100.00
54808;BME280;40708;50.364;7.550;2022-12-18T10:49:26;101809.50;;;-4.34;100.00
54808;BME280;40708;50.364;7.550;2022-12-18T10:52:05;101789.97;;;-4.41;100.00
54808;BME280;40708;50.364;7.550;2022-12-18T10:54:33;101782.56;;;-4.36;100.00
54808;BME280;40708;50.364;7.550;2022-12-18T10:57:39;101785.88;;;-4.49;100.00
54808;BME280;40708;50.364;7.550;2022-12-18T11:00:41;101789.44;;;-3.83;100.00
54808;BME280;40708;50.364;7.550;2022-12-18T11:03:44;101779.13;;;-3.38;100.00
54808;BME280;40708;50.364;7.550;2022-12-18T11:06:16;101774.75;;;-3.61;100.00
54808;BME280;40708;50.364;7.550;2022-12-18T11:08:43;101774.72;;;-3.73;100.00
54808;BME280;40708;50.364;7.550;2022-12-18T11:11:20;101778.56;;;-3.34;100.00
54808;BME280;40708;50.364;7.550;2022-12-18T11:14:05;101776.50;;;-2.82;100.00
54808;BME280;40708;50.364;7.550;2022-12-18T11:16:36;101784.75;;;-2.64;100.00
54808;BME280;40708;50.364;7.550;2022-12-18T11:21:52;101795.59;;;-2.47;100.00
54808;BME280;40708;50.364;7.550;2022-12-18T11:24:22;101787.31;;;-2.18;100.00
54808;BME280;40708;50.364;7.550;2022-12-18T11:26:49;101782.81;;;-2.32;100.00
54808;BME280;40708;50.364;7.550;2022-12-18T11:29:17;101770.84;;;-2.30;100.00
54808;BME280;40708;50.364;7.550;2022-12-18T11:31:42;101778.19;;;-2.71;100.00
54808;BME280;40708;50.364;7.550;2022-12-18T11:36:42;101774.78;;;-2.93;100.00
54808;BME280;40708;50.364;7.550;2022-12-18T11:39:17;101769.03;;;-2.66;100.00
54808;BME280;40708;50.364;7.550;2022-12-18T11:42:00;101776.38;;;-2.60;100.00
54808;BME280;40708;50.364;7.550;2022-12-18T11:44:42;101772.78;;;-2.62;100.00
54808;BME280;40708;50.364;7.550;2022-12-18T11:49:43;101760.78;;;-2.37;100.00
54808;BME280;40708;50.364;7.550;2022-12-18T11:54:39;101759.41;;;-2.20;100.00
54808;BME280;40708;50.364;7.550;2022-12-18T11:57:13;101748.19;;;-2.08;100.00
54808;BME280;40708;50.364;7.550;2022-12-18T12:00:07;101747.78;;;-1.89;100.00
54808;BME280;40708;50.364;7.550;2022-12-18T12:02:54;101744.00;;;-2.17;100.00
54808;BME280;40708;50.364;7.550;2022-12-18T12:22:11;101735.63;;;-2.84;100.00
54808;BME280;40708;50.364;7.550;2022-12-18T12:24:54;101729.41;;;-2.63;100.00
54808;BME280;40708;50.364;7.550;2022-12-18T12:27:34;101724.19;;;-2.40;100.00
54808;BME280;40708;50.364;7.550;2022-12-18T12:30:06;101731.44;;;-2.71;100.00
54808;BME280;40708;50.364;7.550;2022-12-18T12:36:05;101716.19;;;-2.55;100.00
54808;BME280;40708;50.364;7.550;2022-12-18T12:38:09;101711.88;;;-2.43;100.00
54808;BME280;40708;50.364;7.550;2022-12-18T12:40:40;101696.66;;;-2.25;100.00
54808;BME280;40708;50.364;7.550;2022-12-18T12:43:33;101693.59;;;-2.19;100.00
54808;BME280;40708;50.364;7.550;2022-12-18T12:46:04;101691.97;;;-2.06;100.00
54808;BME280;40708;50.364;7.550;2022-12-18T12:48:55;101686.47;;;-2.10;100.00
54808;BME280;40708;50.364;7.550;2022-12-18T12:51:24;101675.13;;;-1.99;100.00
54808;BME280;40708;50.364;7.550;2022-12-18T12:53:51;101663.91;;;-1.98;100.00
54808;BME280;40708;50.364;7.550;2022-12-18T12:56:19;101660.00;;;-2.05;100.00
54808;BME280;40708;50.364;7.550;2022-12-18T12:59:01;101657.66;;;-2.13;100.00
54808;BME280;40708;50.364;7.550;2022-12-18T13:01:38;101660.09;;;-2.03;100.00
54808;BME280;40708;50.364;7.550;2022-12-18T13:04:28;101663.91;;;-1.98;100.00
54808;BME280;40708;50.364;7.550;2022-12-18T13:07:08;101646.72;;;-1.96;100.00
54808;BME280;40708;50.364;7.550;2022-12-18T13:20:48;101668.56;;;-2.06;100.00
54808;BME280;40708;50.364;7.550;2022-12-18T13:25:59;101650.56;;;-2.27;100.00
54808;BME280;40708;50.364;7.550;2022-12-18T13:31:13;101651.78;;;-2.22;100.00
54808;BME280;40708;50.364;7.550;2022-12-18T13:33:43;101649.31;;;-2.21;100.00
54808;BME280;40708;50.364;7.550;2022-12-18T13:38:47;101636.56;;;-2.29;100.00
54808;BME280;40708;50.364;7.550;2022-12-18T13:41:32;101646.72;;;-2.21;100.00
54808;BME280;40708;50.364;7.550;2022-12-18T13:44:11;101641.47;;;-2.34;100.00
54808;BME280;40708;50.364;7.550;2022-12-18T13:46:45;101635.78;;;-2.28;100.00
54808;BME280;40708;50.364;7.550;2022-12-18T13:51:41;101633.53;;;-2.35;100.00
54808;BME280;40708;50.364;7.550;2022-12-18T13:54:25;101635.56;;;-2.31;100.00
54808;BME280;40708;50.364;7.550;2022-12-18T13:56:53;101646.66;;;-2.34;100.00
54808;BME280;40708;50.364;7.550;2022-12-18T14:02:00;101639.88;;;-2.32;100.00
54808;BME280;40708;50.364;7.550;2022-12-18T14:04:33;101636.75;;;-2.51;100.00
54808;BME280;40708;50.364;7.550;2022-12-18T14:07:07;101645.22;;;-2.42;100.00
54808;BME280;40708;50.364;7.550;2022-12-18T14:09:57;101643.84;;;-2.37;100.00
54808;BME280;40708;50.364;7.550;2022-12-18T14:12:32;101651.06;;;-2.45;100.00
54808;BME280;40708;50.364;7.550;2022-12-18T14:20:17;101644.94;;;-2.58;100.00
54808;BME280;40708;50.364;7.550;2022-12-18T14:22:47;101654.47;;;-2.46;100.00
54808;BME280;40708;50.364;7.550;2022-12-18T14:25:23;101648.16;;;-2.49;100.00